Time;durP1;ratioP1;P1;durP2;ratioP2;P2;SDS_P1;SDS_P2;PMS_P1;PMS_P2;Temp;Humidity;BMP_temperature;BMP_pressure;BME280_temperature;BME280_humidity;BME280_pressure;Samples;Min_cycle;Max_cycle;Signal;HPM_P1;HPM_P2
2021/07/26 00:00:33;;;;;;;7.97;7.18;;;;;;;;;;5114745;28;20447;-65
2021/07/26 00:02:59;;;;;;;7.90;7.18;;;;;;;;;;5114655;28;20039;-65
2021/07/26 00:05:25;;;;;;;7.75;7.07;;;;;;;;;;5096424;28;20088;-65
2021/07/26 00:07:50;;;;;;;7.03;6.38;;;;;;;;;;5096398;28;20407;-65
2021/07/26 00:10:16;;;;;;;7.55;6.93;;;;;;;;;;5114605;28;20105;-65
2021/07/26 00:12:41;;;;;;;7.00;6.40;;;;;;;;;;5114500;28;20032;-65
2021/07/26 00:15:07;;;;;;;7.50;6.85;;;;;;;;;;5114594;28;20494;-65
2021/07/26 00:17:33;;;;;;;7.53;6.80;;;;;;;;;;5114359;28;20495;-65
2021/07/26 00:19:59;;;;;;;7.60;6.90;;;;;;;;;;5114364;28;20059;-66
2021/07/26 00:22:24;;;;;;;8.45;6.90;;;;;;;;;;5114414;28;20112;-65
2021/07/26 00:24:49;;;;;;;6.90;6.32;;;;;;;;;;5114361;28;20085;-65
2021/07/26 00:27:15;;;;;;;6.93;6.32;;;;;;;;;;5114320;28;20259;-65
2021/07/26 00:29:40;;;;;;;7.25;6.55;;;;;;;;;;5114233;28;20088;-65
2021/07/26 00:32:06;;;;;;;7.28;6.28;;;;;;;;;;5113982;28;20067;-65
2021/07/26 00:34:31;;;;;;;7.00;6.50;;;;;;;;;;5114155;28;20023;-65
2021/07/26 00:36:58;;;;;;;7.78;6.53;;;;;;;;;;5113451;28;20051;-66
2021/07/26 00:39:27;;;;;;;7.32;6.40;;;;;;;;;;5096205;28;20032;-65
2021/07/26 00:41:53;;;;;;;7.05;5.75;;;;;;;;;;5114229;28;20372;-65
2021/07/26 00:44:19;;;;;;;5.65;5.13;;;;;;;;;;5114070;28;20031;-65
2021/07/26 00:46:45;;;;;;;6.45;5.55;;;;;;;;;;5114001;28;20031;-65
2021/07/26 00:49:12;;;;;;;5.50;5.00;;;;;;;;;;5113959;28;20026;-65
2021/07/26 00:51:39;;;;;;;5.32;4.93;;;;;;;;;;5113913;28;20071;-65
2021/07/26 00:54:04;;;;;;;5.13;4.63;;;;;;;;;;5095604;28;20034;-66
2021/07/26 00:56:30;;;;;;;5.68;4.68;;;;;;;;;;5113807;28;20028;-65
2021/07/26 00:58:56;;;;;;;4.90;4.50;;;;;;;;;;5113664;28;20023;-65
2021/07/26 01:01:21;;;;;;;4.85;4.45;;;;;;;;;;5095657;28;20145;-65
2021/07/26 01:03:47;;;;;;;6.43;4.40;;;;;;;;;;5078636;28;20471;-65
2021/07/26 01:06:12;;;;;;;5.07;4.60;;;;;;;;;;5113639;28;20054;-65
2021/07/26 01:08:38;;;;;;;6.20;4.57;;;;;;;;;;5113554;28;20054;-65
2021/07/26 01:11:04;;;;;;;6.38;4.85;;;;;;;;;;5113637;28;20039;-65
2021/07/26 01:13:30;;;;;;;6.80;5.15;;;;;;;;;;5113543;28;20028;-65
2021/07/26 01:15:55;;;;;;;7.50;6.53;;;;;;;;;;5113618;28;20058;-65
2021/07/26 01:18:30;;;;;;;8.77;6.60;;;;;;;;;;5113511;28;20028;-65
2021/07/26 01:20:57;;;;;;;8.88;6.65;;;;;;;;;;5113526;28;20059;-65
2021/07/26 01:23:23;;;;;;;11.38;7.20;;;;;;;;;;5095536;28;20042;-65
2021/07/26 01:25:49;;;;;;;9.98;7.82;;;;;;;;;;5113610;28;20039;-65
2021/07/26 01:28:15;;;;;;;7.95;7.20;;;;;;;;;;5113405;28;20031;-65
2021/07/26 01:30:41;;;;;;;9.25;7.38;;;;;;;;;;5113452;28;20035;-66
2021/07/26 01:33:07;;;;;;;10.07;7.50;;;;;;;;;;5113277;28;20115;-65
2021/07/26 01:35:33;;;;;;;9.10;7.45;;;;;;;;;;5113359;28;20073;-66
2021/07/26 01:37:59;;;;;;;9.57;6.65;;;;;;;;;;5113149;28;20084;-65
2021/07/26 01:40:24;;;;;;;8.05;6.50;;;;;;;;;;5113343;28;20126;-65
2021/07/26 01:42:59;;;;;;;7.07;6.38;;;;;;;;;;5113293;28;20032;-66
2021/07/26 01:45:25;;;;;;;6.53;5.75;;;;;;;;;;5113448;28;20043;-66
2021/07/26 01:47:52;;;;;;;5.70;5.07;;;;;;;;;;5113229;28;20028;-66
2021/07/26 01:50:19;;;;;;;5.63;5.00;;;;;;;;;;5113208;28;20039;-65
2021/07/26 01:52:44;;;;;;;6.07;4.93;;;;;;;;;;5112711;28;20059;-66
2021/07/26 01:55:10;;;;;;;5.45;5.05;;;;;;;;;;5113194;28;20043;-66
2021/07/26 01:57:35;;;;;;;4.95;4.60;;;;;;;;;;5094860;28;20502;-65
2021/07/26 02:00:01;;;;;;;5.20;4.80;;;;;;;;;;5094898;28;20040;-66
2021/07/26 02:02:28;;;;;;;4.95;4.45;;;;;;;;;;5113095;28;20079;-67
2021/07/26 02:04:53;;;;;;;5.03;4.60;;;;;;;;;;5095122;28;20384;-66
2021/07/26 02:07:18;;;;;;;4.63;4.22;;;;;;;;;;5094842;28;20024;-66
2021/07/26 02:09:44;;;;;;;5.50;4.88;;;;;;;;;;5112959;28;20035;-66
2021/07/26 02:12:10;;;;;;;4.72;4.43;;;;;;;;;;5113018;28;20030;-66
2021/07/26 02:14:36;;;;;;;5.13;4.75;;;;;;;;;;5113110;28;20036;-66
2021/07/26 02:17:01;;;;;;;5.38;4.97;;;;;;;;;;5115072;28;20475;-66
2021/07/26 02:19:26;;;;;;;6.05;5.47;;;;;;;;;;5116719;28;20039;-66
2021/07/26 02:21:52;;;;;;;5.82;5.25;;;;;;;;;;5116788;28;20032;-66
2021/07/26 02:24:18;;;;;;;5.55;4.93;;;;;;;;;;5116711;28;20046;-66
2021/07/26 02:26:44;;;;;;;5.00;4.45;;;;;;;;;;5116626;28;20556;-66
2021/07/26 02:29:09;;;;;;;5.25;4.75;;;;;;;;;;5116594;28;20032;-66
2021/07/26 02:31:35;;;;;;;5.28;4.80;;;;;;;;;;5116561;28;20069;-66
2021/07/26 02:34:00;;;;;;;5.53;5.03;;;;;;;;;;5116463;28;20084;-66
2021/07/26 02:36:25;;;;;;;5.30;4.90;;;;;;;;;;5116179;28;20505;-65
2021/07/26 02:38:51;;;;;;;7.03;4.97;;;;;;;;;;5116457;28;20032;-65
2021/07/26 02:41:17;;;;;;;5.28;4.82;;;;;;;;;;5116343;28;20035;-65
2021/07/26 02:43:42;;;;;;;5.13;4.72;;;;;;;;;;5116346;28;20032;-66
2021/07/26 02:46:08;;;;;;;5.88;5.32;;;;;;;;;;5116071;28;20053;-66
2021/07/26 02:48:34;;;;;;;5.60;4.75;;;;;;;;;;5116285;28;20433;-65
2021/07/26 02:50:59;;;;;;;5.28;4.82;;;;;;;;;;5116242;28;20039;-65
2021/07/26 02:53:25;;;;;;;5.30;4.80;;;;;;;;;;5097947;28;20479;-66
2021/07/26 02:55:50;;;;;;;5.75;5.18;;;;;;;;;;5116205;28;20057;-65
2021/07/26 02:58:16;;;;;;;5.25;4.75;;;;;;;;;;5116099;28;20035;-66
2021/07/26 03:00:41;;;;;;;5.10;4.70;;;;;;;;;;5116041;28;20030;-66
2021/07/26 03:03:06;;;;;;;5.38;4.95;;;;;;;;;;5115929;28;20043;-66
2021/07/26 03:05:33;;;;;;;5.88;5.22;;;;;;;;;;5115919;28;20032;-66
2021/07/26 03:07:58;;;;;;;5.13;4.72;;;;;;;;;;5115753;28;20036;-66
2021/07/26 03:10:24;;;;;;;5.45;5.00;;;;;;;;;;5115817;28;20077;-66
2021/07/26 03:12:49;;;;;;;6.30;5.13;;;;;;;;;;5115635;28;20039;-66
2021/07/26 03:15:14;;;;;;;6.00;5.30;;;;;;;;;;5115597;28;20493;-65
2021/07/26 03:17:40;;;;;;;5.40;5.00;;;;;;;;;;5115570;28;20032;-66
2021/07/26 03:20:06;;;;;;;5.78;5.20;;;;;;;;;;5115584;28;20467;-66
2021/07/26 03:23:01;;;;;;;6.75;5.32;;;;;;;;;;5115684;28;20040;-66
2021/07/26 03:25:27;;;;;;;5.97;5.00;;;;;;;;;;5097555;28;20089;-66
2021/07/26 03:27:53;;;;;;;6.45;5.40;;;;;;;;;;5114120;28;20035;-66
2021/07/26 03:30:20;;;;;;;5.80;5.30;;;;;;;;;;5115273;28;20122;-66
2021/07/26 03:32:46;;;;;;;5.47;4.90;;;;;;;;;;5115301;28;20389;-66
2021/07/26 03:35:13;;;;;;;5.65;5.15;;;;;;;;;;5115290;28;20023;-66
2021/07/26 03:37:39;;;;;;;6.47;5.97;;;;;;;;;;5114741;28;20506;-66
2021/07/26 03:40:05;;;;;;;5.80;5.30;;;;;;;;;;5115206;28;20032;-66
2021/07/26 03:42:37;;;;;;;6.13;5.63;;;;;;;;;;5115157;28;20487;-66
2021/07/26 03:45:04;;;;;;;6.10;5.55;;;;;;;;;;5115141;28;20031;-66
2021/07/26 03:47:30;;;;;;;6.47;5.90;;;;;;;;;;5115125;28;20023;-66
2021/07/26 03:49:55;;;;;;;6.70;5.50;;;;;;;;;;5115039;28;20498;-66
2021/07/26 03:52:21;;;;;;;5.63;5.22;;;;;;;;;;5096516;28;20035;-66
2021/07/26 03:54:47;;;;;;;7.60;5.75;;;;;;;;;;5115030;28;20150;-66
2021/07/26 03:57:12;;;;;;;6.15;5.55;;;;;;;;;;5114754;28;20073;-66
2021/07/26 03:59:38;;;;;;;6.30;5.80;;;;;;;;;;5114772;28;20047;-66
2021/07/26 04:02:03;;;;;;;6.35;5.85;;;;;;;;;;5114798;28;20114;-66
2021/07/26 04:04:30;;;;;;;6.35;5.85;;;;;;;;;;5114775;28;20552;-66
2021/07/26 04:06:59;;;;;;;5.68;5.28;;;;;;;;;;5114767;28;20020;-66
2021/07/26 04:09:28;;;;;;;6.03;5.63;;;;;;;;;;5114718;28;20062;-66
2021/07/26 04:12:18;;;;;;;6.10;5.35;;;;;;;;;;5114711;28;20364;-66
2021/07/26 04:14:42;;;;;;;5.15;4.68;;;;;;;;;;5096075;28;20483;-66
2021/07/26 04:17:08;;;;;;;5.68;5.07;;;;;;;;;;5079303;28;20027;-66
2021/07/26 04:19:33;;;;;;;6.05;5.60;;;;;;;;;;5114584;28;20034;-66
2021/07/26 04:21:59;;;;;;;8.00;6.68;;;;;;;;;;5114342;28;20023;-66
2021/07/26 04:24:25;;;;;;;7.22;6.53;;;;;;;;;;5114275;28;20403;-66
2021/07/26 04:26:50;;;;;;;6.97;6.38;;;;;;;;;;5114312;28;20107;-66
2021/07/26 04:29:16;;;;;;;7.80;7.10;;;;;;;;;;5114271;28;20077;-66
2021/07/26 04:31:43;;;;;;;7.45;6.75;;;;;;;;;;5114292;28;20027;-66
2021/07/26 04:34:09;;;;;;;7.15;6.57;;;;;;;;;;5113917;28;20047;-66
2021/07/26 04:36:34;;;;;;;7.28;6.65;;;;;;;;;;5114055;28;20040;-66
2021/07/26 04:39:00;;;;;;;7.32;6.72;;;;;;;;;;5113829;28;20036;-66
2021/07/26 04:41:25;;;;;;;7.55;6.93;;;;;;;;;;5114057;28;20047;-66
2021/07/26 04:43:51;;;;;;;8.70;7.93;;;;;;;;;;5113888;28;20089;-66
2021/07/26 04:46:16;;;;;;;16.17;7.80;;;;;;;;;;5113911;28;20031;-66
2021/07/26 04:48:42;;;;;;;14.88;7.90;;;;;;;;;;5114075;28;20039;-66
2021/07/26 04:51:07;;;;;;;25.65;8.27;;;;;;;;;;5114035;28;20059;-66
2021/07/26 04:53:34;;;;;;;8.70;7.78;;;;;;;;;;5113796;28;20043;-66
2021/07/26 04:56:00;;;;;;;8.02;7.30;;;;;;;;;;5113827;28;20391;-66
2021/07/26 04:58:26;;;;;;;9.38;7.85;;;;;;;;;;5113871;28;20115;-66
2021/07/26 05:00:51;;;;;;;8.70;7.03;;;;;;;;;;5113827;28;20062;-66
2021/07/26 05:03:17;;;;;;;7.43;6.80;;;;;;;;;;5113655;28;20043;-66
2021/07/26 05:05:42;;;;;;;7.05;6.45;;;;;;;;;;5113681;28;20024;-66
2021/07/26 05:08:08;;;;;;;7.10;6.50;;;;;;;;;;5113752;28;20027;-66
2021/07/26 05:10:33;;;;;;;6.68;6.10;;;;;;;;;;5113759;28;20020;-66
2021/07/26 05:12:59;;;;;;;7.25;6.43;;;;;;;;;;5113634;28;20050;-66
2021/07/26 05:15:24;;;;;;;7.40;6.47;;;;;;;;;;5113736;28;20394;-66
2021/07/26 05:17:50;;;;;;;7.45;6.85;;;;;;;;;;5095287;28;20547;-66
2021/07/26 05:20:15;;;;;;;7.00;6.35;;;;;;;;;;5113466;28;20024;-66
2021/07/26 05:22:41;;;;;;;9.95;7.38;;;;;;;;;;5113481;28;20043;-66
2021/07/26 05:25:07;;;;;;;7.80;7.00;;;;;;;;;;5113531;28;20039;-66
2021/07/26 05:27:32;;;;;;;7.63;6.68;;;;;;;;;;5112950;28;20059;-66
2021/07/26 05:29:58;;;;;;;7.03;6.25;;;;;;;;;;5113830;28;20066;-66
2021/07/26 05:32:23;;;;;;;8.25;7.35;;;;;;;;;;5113343;28;20451;-66
2021/07/26 05:34:49;;;;;;;7.22;6.55;;;;;;;;;;5113370;28;20043;-66
2021/07/26 05:37:15;;;;;;;8.10;7.40;;;;;;;;;;5091250;28;20142;-66
2021/07/26 05:39:41;;;;;;;9.43;8.10;;;;;;;;;;5093089;28;20442;-66
2021/07/26 05:42:08;;;;;;;8.77;7.88;;;;;;;;;;5092940;28;20036;-66
2021/07/26 05:44:36;;;;;;;7.70;7.00;;;;;;;;;;5093052;28;20114;-66
2021/07/26 05:47:02;;;;;;;7.47;6.80;;;;;;;;;;5093027;28;20119;-66
2021/07/26 05:49:27;;;;;;;8.48;7.20;;;;;;;;;;5092949;28;20109;-66
2021/07/26 05:51:53;;;;;;;7.18;6.57;;;;;;;;;;5093733;28;20480;-66
2021/07/26 05:54:18;;;;;;;7.50;6.82;;;;;;;;;;5096832;28;20471;-66
2021/07/26 05:56:46;;;;;;;7.65;6.95;;;;;;;;;;5096947;28;20032;-66
2021/07/26 05:59:11;;;;;;;8.90;8.07;;;;;;;;;;5095562;28;20399;-66
2021/07/26 06:01:49;;;;;;;8.23;7.32;;;;;;;;;;5096705;28;20032;-66
2021/07/26 06:04:19;;;;;;;8.13;7.20;;;;;;;;;;5096738;28;20036;-66
2021/07/26 06:06:45;;;;;;;7.70;6.78;;;;;;;;;;5096670;28;20479;-66
2021/07/26 06:09:11;;;;;;;7.28;6.55;;;;;;;;;;5096533;28;20035;-66
2021/07/26 06:11:37;;;;;;;7.72;6.82;;;;;;;;;;5096526;28;20036;-66
2021/07/26 06:14:02;;;;;;;7.18;6.47;;;;;;;;;;5096411;28;20032;-66
2021/07/26 06:16:28;;;;;;;7.85;6.45;;;;;;;;;;5095274;28;20040;-66
2021/07/26 06:18:53;;;;;;;7.85;7.15;;;;;;;;;;5096444;28;20038;-66
2021/07/26 06:21:20;;;;;;;6.70;6.18;;;;;;;;;;5095939;28;20484;-66
2021/07/26 06:23:45;;;;;;;6.65;6.05;;;;;;;;;;5096339;28;20085;-66
2021/07/26 06:26:11;;;;;;;7.53;6.63;;;;;;;;;;5096216;28;20417;-66
2021/07/26 06:28:36;;;;;;;7.72;7.03;;;;;;;;;;5095072;28;20032;-66
2021/07/26 06:31:03;;;;;;;6.50;6.00;;;;;;;;;;5096196;28;20055;-66
2021/07/26 06:33:30;;;;;;;6.63;6.00;;;;;;;;;;5096110;28;20046;-66
2021/07/26 06:35:56;;;;;;;6.60;6.05;;;;;;;;;;5096213;28;20542;-66
2021/07/26 06:38:21;;;;;;;6.72;6.07;;;;;;;;;;5114062;28;20093;-66
2021/07/26 06:40:47;;;;;;;6.95;6.25;;;;;;;;;;5116299;28;20071;-66
2021/07/26 06:43:12;;;;;;;7.28;6.68;;;;;;;;;;5116347;28;20031;-66
2021/07/26 06:45:38;;;;;;;8.05;6.13;;;;;;;;;;5116390;28;20040;-66
2021/07/26 06:48:03;;;;;;;6.28;5.78;;;;;;;;;;5116310;28;20020;-66
2021/07/26 06:50:29;;;;;;;6.38;5.78;;;;;;;;;;5116209;28;20503;-66
2021/07/26 06:52:54;;;;;;;6.57;5.93;;;;;;;;;;5116003;28;20127;-66
2021/07/26 06:55:19;;;;;;;6.18;5.68;;;;;;;;;;5116057;28;20035;-66
2021/07/26 06:57:45;;;;;;;5.63;5.15;;;;;;;;;;5115958;28;20031;-66
2021/07/26 07:00:11;;;;;;;6.25;5.57;;;;;;;;;;5115979;28;20031;-66
2021/07/26 07:02:37;;;;;;;6.25;5.68;;;;;;;;;;5115840;28;20031;-66
2021/07/26 07:05:03;;;;;;;6.40;5.78;;;;;;;;;;5115900;28;20524;-66
2021/07/26 07:07:29;;;;;;;7.10;6.45;;;;;;;;;;5115974;28;20039;-66
2021/07/26 07:09:54;;;;;;;6.53;5.85;;;;;;;;;;5115859;28;20024;-66
2021/07/26 07:12:19;;;;;;;16.42;6.38;;;;;;;;;;5115773;28;20015;-66
2021/07/26 07:14:45;;;;;;;5.40;5.00;;;;;;;;;;5115717;28;20040;-66
2021/07/26 07:17:10;;;;;;;6.68;5.30;;;;;;;;;;5115673;28;20391;-66
2021/07/26 07:19:43;;;;;;;5.43;4.90;;;;;;;;;;5115648;28;20039;-66
2021/07/26 07:22:09;;;;;;;4.90;4.32;;;;;;;;;;5080534;28;20046;-66
2021/07/26 07:24:34;;;;;;;4.95;4.57;;;;;;;;;;5115679;28;20028;-66
2021/07/26 07:27:00;;;;;;;4.88;4.45;;;;;;;;;;5115606;28;20039;-66
2021/07/26 07:29:25;;;;;;;4.45;4.25;;;;;;;;;;5097041;28;20046;-66
2021/07/26 07:31:51;;;;;;;4.78;4.38;;;;;;;;;;5115267;28;20031;-66
2021/07/26 07:34:16;;;;;;;5.30;4.88;;;;;;;;;;5115279;28;20122;-66
2021/07/26 07:36:42;;;;;;;4.57;4.22;;;;;;;;;;5114632;28;20510;-67
2021/07/26 07:39:09;;;;;;;4.63;4.13;;;;;;;;;;5115415;28;20032;-66
2021/07/26 07:41:34;;;;;;;4.65;4.25;;;;;;;;;;5097061;28;20040;-66
2021/07/26 07:44:01;;;;;;;4.88;4.07;;;;;;;;;;5115091;28;20076;-66
2021/07/26 07:46:27;;;;;;;5.00;3.72;;;;;;;;;;5115088;28;20473;-66
2021/07/26 07:48:52;;;;;;;4.15;3.83;;;;;;;;;;5114998;28;20109;-66
2021/07/26 07:51:18;;;;;;;4.18;3.85;;;;;;;;;;5096676;28;20453;-66
2021/07/26 07:53:44;;;;;;;4.15;3.78;;;;;;;;;;5114896;28;20092;-66
2021/07/26 07:56:10;;;;;;;4.47;4.13;;;;;;;;;;5115088;28;20115;-67
2021/07/26 07:58:36;;;;;;;4.00;3.70;;;;;;;;;;5096606;28;20101;-67
2021/07/26 08:01:02;;;;;;;4.45;4.15;;;;;;;;;;5114844;28;20508;-66
2021/07/26 08:03:27;;;;;;;4.55;4.25;;;;;;;;;;5114771;28;20059;-66
2021/07/26 08:05:53;;;;;;;4.57;4.28;;;;;;;;;;5114616;28;20038;-67
2021/07/26 08:08:19;;;;;;;4.50;4.20;;;;;;;;;;5115005;28;20032;-66
2021/07/26 08:10:44;;;;;;;3.85;3.65;;;;;;;;;;5114703;28;20073;-67
2021/07/26 08:13:10;;;;;;;3.95;3.75;;;;;;;;;;5114560;28;20087;-67
2021/07/26 08:15:35;;;;;;;4.50;4.07;;;;;;;;;;5113961;28;20100;-66
2021/07/26 08:18:02;;;;;;;4.50;4.20;;;;;;;;;;5114562;28;20532;-66
2021/07/26 08:20:28;;;;;;;4.28;4.03;;;;;;;;;;5114526;28;20498;-67
2021/07/26 08:22:53;;;;;;;4.68;4.28;;;;;;;;;;5114386;28;20032;-66
2021/07/26 08:25:19;;;;;;;4.47;4.07;;;;;;;;;;5114312;28;20395;-67
2021/07/26 08:27:48;;;;;;;5.45;3.85;;;;;;;;;;5114269;28;20027;-66
2021/07/26 08:30:14;;;;;;;3.83;3.63;;;;;;;;;;5114328;28;20070;-66
2021/07/26 08:32:39;;;;;;;3.72;3.53;;;;;;;;;;5114142;28;20105;-67
2021/07/26 08:35:05;;;;;;;4.07;3.75;;;;;;;;;;5114273;28;20028;-66
2021/07/26 08:37:30;;;;;;;4.05;3.75;;;;;;;;;;5095709;28;20044;-66
2021/07/26 08:40:00;;;;;;;3.90;3.60;;;;;;;;;;5114212;28;20035;-66
2021/07/26 08:42:26;;;;;;;3.95;3.72;;;;;;;;;;5114116;28;20123;-66
2021/07/26 08:44:51;;;;;;;3.88;3.60;;;;;;;;;;5114040;28;20111;-66
2021/07/26 08:47:17;;;;;;;3.65;3.38;;;;;;;;;;5095809;28;20027;-66
2021/07/26 08:49:43;;;;;;;3.33;3.10;;;;;;;;;;5113972;28;20042;-66
2021/07/26 08:52:08;;;;;;;3.25;2.97;;;;;;;;;;5113982;28;20103;-66
2021/07/26 08:54:37;;;;;;;4.07;3.40;;;;;;;;;;5113974;28;20070;-66
2021/07/26 08:57:02;;;;;;;3.70;3.50;;;;;;;;;;5095771;28;20395;-66
2021/07/26 08:59:28;;;;;;;4.53;3.35;;;;;;;;;;5113821;28;20042;-66
2021/07/26 09:01:54;;;;;;;4.35;3.95;;;;;;;;;;5113637;28;20053;-66
2021/07/26 09:04:20;;;;;;;3.58;3.33;;;;;;;;;;5113759;28;20543;-66
2021/07/26 09:06:46;;;;;;;3.90;3.60;;;;;;;;;;5113713;28;20061;-66
2021/07/26 09:09:11;;;;;;;4.10;3.70;;;;;;;;;;5113651;28;20131;-66
2021/07/26 09:11:44;;;;;;;3.70;3.47;;;;;;;;;;5113790;28;20023;-67
2021/07/26 09:14:09;;;;;;;4.45;3.92;;;;;;;;;;5095407;28;20036;-67
2021/07/26 09:16:35;;;;;;;4.28;3.90;;;;;;;;;;5113771;28;20102;-67
2021/07/26 09:19:02;;;;;;;3.78;3.47;;;;;;;;;;5113659;28;20024;-66
2021/07/26 09:21:49;;;;;;;3.90;3.53;;;;;;;;;;5113712;28;20030;-67
2021/07/26 09:24:14;;;;;;;4.00;3.70;;;;;;;;;;5113463;28;20028;-67
2021/07/26 09:26:40;;;;;;;4.10;3.80;;;;;;;;;;5117073;28;20031;-67
2021/07/26 09:29:25;;;;;;;4.18;3.78;;;;;;;;;;5117811;28;20043;-66
2021/07/26 09:32:01;;;;;;;3.88;3.63;;;;;;;;;;5117748;28;20035;-67
2021/07/26 09:34:27;;;;;;;3.78;3.50;;;;;;;;;;5117572;28;20044;-67
2021/07/26 09:36:52;;;;;;;3.78;3.47;;;;;;;;;;5117273;28;20094;-67
2021/07/26 09:39:29;;;;;;;4.65;3.63;;;;;;;;;;5099785;28;20491;-67
2021/07/26 09:41:56;;;;;;;3.45;3.25;;;;;;;;;;5117608;28;20088;-66
2021/07/26 09:44:24;;;;;;;3.63;3.33;;;;;;;;;;5117481;28;20035;-66
2021/07/26 09:46:50;;;;;;;3.97;3.53;;;;;;;;;;5117418;28;20035;-67
2021/07/26 09:49:18;;;;;;;3.58;3.28;;;;;;;;;;5117574;28;20364;-66
2021/07/26 09:52:02;;;;;;;3.92;3.15;;;;;;;;;;5117455;28;20036;-67
2021/07/26 09:54:39;;;;;;;3.67;3.38;;;;;;;;;;5117290;28;20517;-67
2021/07/26 09:57:18;;;;;;;4.03;3.45;;;;;;;;;;5117196;28;20036;-67
2021/07/26 09:59:46;;;;;;;3.78;3.47;;;;;;;;;;5117304;28;20043;-67
2021/07/26 10:02:13;;;;;;;3.25;3.05;;;;;;;;;;5099063;28;20024;-66
2021/07/26 10:04:41;;;;;;;3.97;3.67;;;;;;;;;;5117192;28;20035;-67
2021/07/26 10:07:07;;;;;;;4.60;4.00;;;;;;;;;;5117280;28;20032;-67
2021/07/26 10:09:32;;;;;;;3.83;3.55;;;;;;;;;;5098759;28;20050;-67
2021/07/26 10:12:00;;;;;;;4.25;3.95;;;;;;;;;;5116982;28;20042;-67
2021/07/26 10:14:25;;;;;;;4.13;3.90;;;;;;;;;;5116872;28;20101;-67
2021/07/26 10:16:51;;;;;;;3.72;3.47;;;;;;;;;;5116922;28;20020;-67
2021/07/26 10:19:17;;;;;;;4.72;4.32;;;;;;;;;;5116855;28;20035;-67
2021/07/26 10:21:43;;;;;;;4.03;3.72;;;;;;;;;;5116879;28;20027;-66
2021/07/26 10:24:08;;;;;;;5.13;4.63;;;;;;;;;;5116712;28;20036;-67
2021/07/26 10:26:39;;;;;;;4.05;3.75;;;;;;;;;;5116792;28;20031;-67
2021/07/26 10:29:04;;;;;;;4.72;4.43;;;;;;;;;;5116597;28;20039;-67
2021/07/26 10:31:30;;;;;;;5.25;4.75;;;;;;;;;;5116705;28;20031;-66
2021/07/26 10:34:02;;;;;;;4.72;4.32;;;;;;;;;;5098461;28;20064;-67
2021/07/26 10:36:45;;;;;;;4.97;4.57;;;;;;;;;;5115962;28;20070;-67
2021/07/26 10:39:11;;;;;;;4.20;3.90;;;;;;;;;;5116924;28;20455;-67
2021/07/26 10:41:57;;;;;;;4.57;4.20;;;;;;;;;;5116497;28;20133;-67
2021/07/26 10:44:22;;;;;;;4.00;3.67;;;;;;;;;;5064251;28;20038;-67
2021/07/26 10:46:50;;;;;;;4.68;4.38;;;;;;;;;;5116489;28;20019;-67
2021/07/26 10:49:17;;;;;;;5.07;4.60;;;;;;;;;;5098180;28;20032;-67
2021/07/26 10:51:45;;;;;;;4.43;4.05;;;;;;;;;;5116186;28;20031;-67
2021/07/26 10:54:29;;;;;;;4.90;4.50;;;;;;;;;;5116183;28;20477;-67
2021/07/26 10:57:01;;;;;;;4.50;4.10;;;;;;;;;;5116207;28;20037;-67
2021/07/26 10:59:27;;;;;;;4.75;4.45;;;;;;;;;;5097801;28;20032;-67
2021/07/26 11:01:56;;;;;;;4.97;4.45;;;;;;;;;;5116168;28;20020;-67
2021/07/26 11:04:32;;;;;;;4.60;4.22;;;;;;;;;;5115972;28;20491;-67
2021/07/26 11:06:59;;;;;;;4.93;4.53;;;;;;;;;;5115998;28;20139;-67
2021/07/26 11:09:26;;;;;;;4.85;4.43;;;;;;;;;;5115986;28;20058;-67
2021/07/26 11:11:53;;;;;;;5.18;4.80;;;;;;;;;;5097627;28;20047;-67
2021/07/26 11:14:19;;;;;;;6.50;4.78;;;;;;;;;;5115714;28;20035;-67
2021/07/26 11:16:55;;;;;;;5.18;4.68;;;;;;;;;;5115831;28;20036;-67
2021/07/26 11:19:39;;;;;;;4.63;4.35;;;;;;;;;;5115837;28;20123;-67
2021/07/26 11:22:06;;;;;;;5.18;4.40;;;;;;;;;;5115745;28;20027;-67
2021/07/26 11:24:38;;;;;;;4.00;3.70;;;;;;;;;;5115519;28;20027;-67
2021/07/26 11:27:04;;;;;;;5.10;4.70;;;;;;;;;;5115437;28;20093;-67
2021/07/26 11:29:30;;;;;;;4.82;4.50;;;;;;;;;;5097325;28;20028;-67
2021/07/26 11:31:59;;;;;;;4.75;4.43;;;;;;;;;;5115418;28;20395;-67
2021/07/26 11:34:28;;;;;;;4.90;4.55;;;;;;;;;;5097438;28;20077;-67
2021/07/26 11:37:03;;;;;;;4.68;4.38;;;;;;;;;;5115173;28;20097;-67
2021/07/26 11:39:44;;;;;;;4.75;4.35;;;;;;;;;;5115433;28;20036;-67
2021/07/26 11:42:10;;;;;;;4.57;4.28;;;;;;;;;;5115335;28;20023;-67
2021/07/26 11:44:36;;;;;;;4.10;3.78;;;;;;;;;;5115295;28;20030;-67
2021/07/26 11:47:02;;;;;;;4.32;4.03;;;;;;;;;;5114789;28;20040;-67
2021/07/26 11:49:27;;;;;;;5.15;4.60;;;;;;;;;;5114047;28;20455;-67
2021/07/26 11:52:08;;;;;;;4.50;4.10;;;;;;;;;;5115002;28;20058;-67
2021/07/26 11:54:34;;;;;;;4.53;4.30;;;;;;;;;;5115092;28;20042;-66
2021/07/26 11:57:03;;;;;;;4.72;4.13;;;;;;;;;;5114980;28;20023;-67
2021/07/26 11:59:30;;;;;;;4.50;4.20;;;;;;;;;;5115108;28;20028;-67
2021/07/26 12:01:57;;;;;;;4.55;4.25;;;;;;;;;;5114912;28;20110;-66
2021/07/26 12:04:27;;;;;;;4.68;4.38;;;;;;;;;;5114866;28;20086;-67
2021/07/26 12:06:56;;;;;;;6.22;4.50;;;;;;;;;;5114801;28;20110;-66
2021/07/26 12:09:22;;;;;;;5.30;4.90;;;;;;;;;;5114851;28;20152;-67
2021/07/26 12:11:47;;;;;;;4.70;4.40;;;;;;;;;;5096485;28;20130;-66
2021/07/26 12:14:26;;;;;;;5.75;5.30;;;;;;;;;;5114439;28;20031;-67
2021/07/26 12:17:02;;;;;;;5.50;5.10;;;;;;;;;;5114613;28;20031;-66
2021/07/26 12:19:27;;;;;;;5.57;5.07;;;;;;;;;;5114605;28;20031;-66
2021/07/26 12:21:53;;;;;;;5.55;4.88;;;;;;;;;;5114615;28;20368;-67
2021/07/26 12:24:37;;;;;;;6.05;4.55;;;;;;;;;;5114498;28;20047;-66
2021/07/26 12:27:03;;;;;;;5.70;5.07;;;;;;;;;;5096226;28;20117;-66
2021/07/26 12:29:29;;;;;;;5.90;5.38;;;;;;;;;;5114226;28;20031;-66
2021/07/26 12:32:04;;;;;;;6.68;5.75;;;;;;;;;;5114293;28;20126;-66
2021/07/26 12:34:30;;;;;;;6.03;5.35;;;;;;;;;;5114344;28;20031;-66
2021/07/26 12:37:05;;;;;;;5.90;5.45;;;;;;;;;;5092181;28;20588;-67
2021/07/26 12:39:36;;;;;;;6.22;5.72;;;;;;;;;;5093734;28;20036;-66
2021/07/26 12:42:03;;;;;;;;;;;;;;;;;;5094177;28;20032;-67
2021/07/26 12:44:30;;;;;;;5.88;5.47;;;;;;;;;;5093715;28;19987;-67
2021/07/26 12:46:56;;;;;;;5.88;5.43;;;;;;;;;;5093743;28;20055;-66
2021/07/26 12:49:22;;;;;;;7.15;5.53;;;;;;;;;;5093567;28;20477;-66
2021/07/26 12:51:50;;;;;;;7.13;6.53;;;;;;;;;;5093617;28;20050;-67
2021/07/26 12:54:15;;;;;;;6.20;5.60;;;;;;;;;;5093659;28;20024;-66
2021/07/26 12:56:41;;;;;;;6.10;5.53;;;;;;;;;;5093640;28;20032;-66
2021/07/26 12:59:07;;;;;;;6.80;5.95;;;;;;;;;;5093526;28;20384;-66
2021/07/26 13:01:33;;;;;;;7.00;6.38;;;;;;;;;;5092093;28;20036;-67
2021/07/26 13:03:58;;;;;;;7.25;6.65;;;;;;;;;;5093439;28;20077;-67
2021/07/26 13:06:24;;;;;;;7.47;6.78;;;;;;;;;;5093586;28;20074;-66
2021/07/26 13:08:49;;;;;;;7.53;6.82;;;;;;;;;;5093346;28;20395;-66
2021/07/26 13:11:15;;;;;;;7.93;6.75;;;;;;;;;;5093282;28;20484;-66
2021/07/26 13:13:40;;;;;;;7.15;6.55;;;;;;;;;;5091870;28;20036;-67
2021/07/26 13:16:06;;;;;;;7.15;6.45;;;;;;;;;;5093175;28;20039;-67
2021/07/26 13:18:31;;;;;;;7.45;6.82;;;;;;;;;;5093370;28;20073;-66
2021/07/26 13:20:57;;;;;;;7.25;6.60;;;;;;;;;;5093535;28;20044;-66
2021/07/26 13:23:22;;;;;;;7.32;6.63;;;;;;;;;;5093265;28;20176;-67
2021/07/26 13:25:48;;;;;;;10.23;7.55;;;;;;;;;;5091875;28;20040;-66
2021/07/26 13:28:14;;;;;;;8.15;6.90;;;;;;;;;;5093085;28;20032;-67
2021/07/26 13:30:39;;;;;;;8.75;7.75;;;;;;;;;;5093145;28;20070;-67
2021/07/26 13:33:05;;;;;;;6.35;5.75;;;;;;;;;;5093097;28;20024;-67
2021/07/26 13:35:31;;;;;;;7.57;6.88;;;;;;;;;;5092823;28;20031;-67
2021/07/26 13:37:57;;;;;;;7.00;6.50;;;;;;;;;;5106774;28;20036;-67
2021/07/26 13:40:23;;;;;;;7.32;6.78;;;;;;;;;;5113464;28;20032;-67
2021/07/26 13:42:49;;;;;;;7.13;6.63;;;;;;;;;;5095247;28;20035;-67
2021/07/26 13:45:14;;;;;;;8.15;7.35;;;;;;;;;;5095045;28;20040;-67
2021/07/26 13:47:41;;;;;;;8.60;7.72;;;;;;;;;;5113421;28;20028;-66
2021/07/26 13:50:07;;;;;;;7.57;6.93;;;;;;;;;;5113476;28;20040;-67
2021/07/26 13:52:33;;;;;;;7.90;7.25;;;;;;;;;;5113210;28;20080;-67
2021/07/26 13:55:05;;;;;;;10.10;8.13;;;;;;;;;;5095156;28;20510;-66
2021/07/26 13:57:31;;;;;;;7.80;7.18;;;;;;;;;;5113279;28;20043;-67
2021/07/26 13:59:58;;;;;;;8.25;7.53;;;;;;;;;;5113314;28;20027;-66
2021/07/26 14:02:24;;;;;;;8.25;7.45;;;;;;;;;;5113303;28;20028;-66
2021/07/26 14:04:49;;;;;;;8.30;7.43;;;;;;;;;;5094942;28;20027;-66
2021/07/26 14:07:15;;;;;;;8.82;7.90;;;;;;;;;;5113129;28;20028;-67
2021/07/26 14:09:41;;;;;;;9.25;8.35;;;;;;;;;;5113067;28;20073;-66
2021/07/26 14:12:06;;;;;;;8.35;7.50;;;;;;;;;;5113753;28;20089;-67
2021/07/26 14:14:33;;;;;;;9.43;8.63;;;;;;;;;;5116885;28;20034;-67
2021/07/26 14:17:00;;;;;;;8.02;7.32;;;;;;;;;;5116893;28;20433;-67
2021/07/26 14:19:28;;;;;;;8.73;7.90;;;;;;;;;;5116814;28;20111;-67
2021/07/26 14:21:57;;;;;;;8.48;7.78;;;;;;;;;;5098764;28;20054;-67
2021/07/26 14:24:24;;;;;;;8.63;7.73;;;;;;;;;;5116897;28;20023;-67
2021/07/26 14:26:50;;;;;;;9.85;8.32;;;;;;;;;;5116921;28;20063;-67
2021/07/26 14:29:15;;;;;;;9.88;8.88;;;;;;;;;;5116412;28;20062;-67
2021/07/26 14:31:42;;;;;;;8.93;7.55;;;;;;;;;;5116832;28;20032;-67
2021/07/26 14:34:07;;;;;;;8.20;7.50;;;;;;;;;;5116610;28;20035;-66
2021/07/26 14:36:33;;;;;;;8.55;7.70;;;;;;;;;;5116384;28;20080;-67
2021/07/26 14:38:58;;;;;;;8.90;8.13;;;;;;;;;;5116631;28;20040;-67
2021/07/26 14:41:25;;;;;;;8.07;7.28;;;;;;;;;;5116460;28;20119;-67